createdAt,value
2023-05-14T00:03:54.135Z,971
2023-05-14T00:08:55.605Z,971
2023-05-14T00:13:57.089Z,970
2023-05-14T00:18:58.521Z,971
2023-05-14T00:23:59.986Z,970
2023-05-14T00:29:01.501Z,970
2023-05-14T00:34:02.994Z,970
2023-05-14T00:39:04.420Z,970
2023-05-14T00:44:05.828Z,971
2023-05-14T00:49:07.208Z,970
2023-05-14T00:54:08.624Z,970
2023-05-14T00:59:10.045Z,970
2023-05-14T01:04:11.476Z,970
2023-05-14T01:09:12.910Z,970
2023-05-14T01:14:14.269Z,970
2023-05-14T01:19:15.757Z,970
2023-05-14T01:24:17.223Z,970
2023-05-14T01:29:18.576Z,970
2023-05-14T01:34:20.090Z,970
2023-05-14T01:39:21.481Z,970
2023-05-14T01:44:22.851Z,971
2023-05-14T01:49:24.237Z,970
2023-05-14T01:54:25.657Z,970
2023-05-14T01:59:27.227Z,970
2023-05-14T02:04:28.670Z,970
2023-05-14T02:09:30.054Z,970
2023-05-14T02:14:31.478Z,970
2023-05-14T02:19:32.885Z,970
2023-05-14T02:24:34.317Z,971
2023-05-14T02:29:35.910Z,971
2023-05-14T02:34:37.375Z,971
2023-05-14T02:39:38.810Z,971
2023-05-14T02:44:40.309Z,971
2023-05-14T02:49:41.692Z,971
2023-05-14T02:54:43.138Z,971
2023-05-14T02:59:44.586Z,971
2023-05-14T03:04:46.598Z,971
2023-05-14T03:09:47.996Z,971
2023-05-14T03:14:49.380Z,971
2023-05-14T03:19:51.006Z,971
2023-05-14T03:24:52.352Z,971
2023-05-14T03:29:53.916Z,971
2023-05-14T03:34:55.393Z,971
2023-05-14T03:39:56.809Z,971
2023-05-14T03:44:58.288Z,971
2023-05-14T03:49:59.717Z,972
2023-05-14T03:55:01.149Z,972
2023-05-14T04:00:02.534Z,972
2023-05-14T04:05:03.955Z,972
2023-05-14T04:10:05.330Z,972
2023-05-14T04:15:06.777Z,972
2023-05-14T04:20:08.366Z,972
2023-05-14T04:25:09.765Z,972
2023-05-14T04:30:11.260Z,972
2023-05-14T04:35:12.828Z,972
2023-05-14T04:40:14.245Z,972
2023-05-14T04:45:15.634Z,972
2023-05-14T04:50:17.053Z,973
2023-05-14T04:55:18.464Z,973
2023-05-14T05:00:20.038Z,973
2023-05-14T05:05:21.532Z,973
2023-05-14T05:10:23.298Z,973
2023-05-14T05:15:26.575Z,973
2023-05-14T05:20:28.361Z,973
2023-05-14T05:25:29.775Z,973
2023-05-14T05:30:31.133Z,973
2023-05-14T05:35:32.509Z,973
2023-05-14T05:40:33.895Z,973
2023-05-14T05:45:35.315Z,973
2023-05-14T05:50:36.705Z,973
2023-05-14T05:55:38.117Z,973
2023-05-14T06:00:39.572Z,973
2023-05-14T06:05:41.010Z,973
2023-05-14T06:10:42.459Z,974
2023-05-14T06:15:43.971Z,974
2023-05-14T06:20:45.381Z,974
2023-05-14T06:25:48.416Z,974
2023-05-14T06:30:51.700Z,974
2023-05-14T06:35:53.158Z,974
2023-05-14T06:40:54.690Z,974
2023-05-14T06:45:56.148Z,974
2023-05-14T06:50:57.569Z,974
2023-05-14T06:55:58.979Z,974
2023-05-14T07:01:00.574Z,974
2023-05-14T07:06:02.099Z,974
2023-05-14T07:11:03.539Z,974
2023-05-14T07:16:05.041Z,974
2023-05-14T07:21:06.658Z,974
2023-05-14T07:26:08.151Z,974
2023-05-14T07:31:09.675Z,974
2023-05-14T07:36:11.217Z,974
2023-05-14T07:41:12.642Z,974
2023-05-14T07:46:14.061Z,974
2023-05-14T07:51:15.487Z,974
2023-05-14T07:56:16.974Z,974
2023-05-14T08:01:18.431Z,974
2023-05-14T08:06:19.895Z,974
2023-05-14T08:11:21.329Z,974
2023-05-14T08:16:22.862Z,974
2023-05-14T08:21:24.285Z,975
2023-05-14T08:26:25.736Z,975
2023-05-14T08:31:27.312Z,975
2023-05-14T08:36:28.952Z,975
2023-05-14T08:41:30.442Z,975
2023-05-14T08:46:31.863Z,975
2023-05-14T08:51:33.325Z,975
2023-05-14T08:56:34.750Z,975
2023-05-14T09:01:36.205Z,975
2023-05-14T09:06:37.770Z,975
2023-05-14T09:11:39.232Z,975
2023-05-14T09:16:40.744Z,975
2023-05-14T09:21:42.189Z,975
2023-05-14T09:26:43.614Z,975
2023-05-14T09:31:45.102Z,975
2023-05-14T09:36:46.736Z,975
2023-05-14T09:41:48.231Z,975
2023-05-14T09:46:49.709Z,975
2023-05-14T09:51:51.149Z,975
2023-05-14T09:56:55.034Z,975
2023-05-14T10:01:57.017Z,975
2023-05-14T10:06:58.423Z,975
2023-05-14T10:11:59.834Z,975
2023-05-14T10:17:01.306Z,975
2023-05-14T10:22:02.835Z,975
2023-05-14T10:27:04.246Z,975
2023-05-14T10:32:05.730Z,975
2023-05-14T10:37:07.200Z,975
2023-05-14T10:42:08.670Z,975
2023-05-14T10:47:10.098Z,975
2023-05-14T10:52:11.526Z,975
2023-05-14T10:57:12.949Z,975
2023-05-14T11:02:14.549Z,975
2023-05-14T11:07:16.102Z,975
2023-05-14T11:12:17.609Z,975
2023-05-14T11:17:19.293Z,975
2023-05-14T11:22:20.785Z,975
2023-05-14T11:27:22.278Z,975
2023-05-14T11:32:23.883Z,975
2023-05-14T11:37:25.409Z,975
2023-05-14T11:42:26.913Z,975
2023-05-14T11:47:28.348Z,975
2023-05-14T11:52:29.743Z,975
2023-05-14T11:57:31.224Z,975
2023-05-14T12:02:32.836Z,975
2023-05-14T12:07:34.424Z,975
2023-05-14T12:12:35.879Z,975
2023-05-14T12:17:37.503Z,975
2023-05-14T12:22:38.913Z,975
2023-05-14T12:27:40.463Z,975
2023-05-14T12:32:42.063Z,975
2023-05-14T12:37:43.461Z,975
2023-05-14T12:42:44.990Z,975
2023-05-14T12:47:46.492Z,975
2023-05-14T12:52:47.915Z,975
2023-05-14T12:57:49.376Z,975
2023-05-14T13:02:50.818Z,975
2023-05-14T13:07:52.278Z,975
2023-05-14T13:12:53.726Z,975
2023-05-14T13:17:55.213Z,975
2023-05-14T13:22:56.622Z,975
2023-05-14T13:27:58.093Z,975
2023-05-14T13:32:59.522Z,975
2023-05-14T13:38:00.999Z,975
2023-05-14T13:43:02.471Z,975
2023-05-14T13:48:03.958Z,975
2023-05-14T13:53:05.447Z,975
2023-05-14T13:58:06.934Z,975
2023-05-14T14:03:08.558Z,975
2023-05-14T14:08:22.776Z,975
2023-05-14T14:13:25.586Z,975
2023-05-14T14:18:27.120Z,975
2023-05-14T14:23:28.615Z,975
2023-05-14T14:28:30.069Z,975
2023-05-14T14:33:31.473Z,975
2023-05-14T14:38:32.887Z,975
2023-05-14T14:43:34.466Z,975
2023-05-14T14:48:35.930Z,975
2023-05-14T14:53:37.400Z,975
2023-05-14T14:58:38.808Z,975
2023-05-14T15:03:40.263Z,975
2023-05-14T15:08:41.774Z,975
2023-05-14T15:13:43.165Z,975
2023-05-14T15:18:44.680Z,975
2023-05-14T15:23:46.130Z,975
2023-05-14T15:28:47.508Z,975
2023-05-14T15:33:49.124Z,975
2023-05-14T15:38:50.528Z,975
2023-05-14T15:43:51.887Z,975
2023-05-14T15:48:53.323Z,974
2023-05-14T15:53:54.691Z,975
2023-05-14T15:58:56.121Z,974
2023-05-14T16:03:57.648Z,974
2023-05-14T16:08:59.167Z,974
2023-05-14T16:14:00.650Z,974
2023-05-14T16:19:02.083Z,974
2023-05-14T16:24:03.496Z,974
2023-05-14T16:29:04.945Z,974
2023-05-14T16:34:06.479Z,974
2023-05-14T16:39:08.563Z,974
2023-05-14T16:44:10.133Z,974
2023-05-14T16:49:11.684Z,974
2023-05-14T16:54:13.107Z,973
2023-05-14T16:59:14.796Z,973
2023-05-14T17:04:16.320Z,973
2023-05-14T17:09:17.832Z,973
2023-05-14T17:14:19.212Z,973
2023-05-14T17:19:20.654Z,973
2023-05-14T17:24:22.079Z,973
2023-05-14T17:29:23.475Z,973
2023-05-14T17:34:24.832Z,973
2023-05-14T17:39:26.285Z,973
2023-05-14T17:44:27.669Z,973
2023-05-14T17:49:29.061Z,973
2023-05-14T17:54:30.450Z,973
2023-05-14T17:59:31.835Z,972
2023-05-14T18:04:33.344Z,972
2023-05-14T18:09:34.733Z,972
2023-05-14T18:14:36.157Z,972
2023-05-14T18:19:37.730Z,972
2023-05-14T18:24:39.138Z,972
2023-05-14T18:29:40.530Z,972
2023-05-14T18:34:42.130Z,972
2023-05-14T18:39:43.536Z,972
2023-05-14T18:44:44.940Z,972
2023-05-14T18:49:46.318Z,972
2023-05-14T18:54:47.697Z,971
2023-05-14T18:59:49.147Z,971
2023-05-14T19:04:52.764Z,971
2023-05-14T19:09:54.764Z,971
2023-05-14T19:14:56.162Z,971
2023-05-14T19:19:57.636Z,971
2023-05-14T19:24:59.020Z,971
2023-05-14T19:30:00.428Z,971
2023-05-14T19:35:01.829Z,970
2023-05-14T19:40:03.255Z,970
2023-05-14T19:45:04.755Z,970
2023-05-14T19:50:06.510Z,970
2023-05-14T19:55:07.952Z,970
2023-05-14T20:00:09.323Z,970
2023-05-14T20:05:10.822Z,970
2023-05-14T20:10:12.436Z,970
2023-05-14T20:15:13.995Z,970
2023-05-14T20:20:15.377Z,970
2023-05-14T20:25:16.780Z,970
2023-05-14T20:30:18.191Z,969
2023-05-14T20:35:19.569Z,969
2023-05-14T20:40:21.010Z,969
2023-05-14T20:45:22.430Z,969
2023-05-14T20:50:24.043Z,969
2023-05-14T20:55:25.663Z,969
2023-05-14T21:00:27.276Z,969
2023-05-14T21:05:28.805Z,969
2023-05-14T21:10:30.247Z,969
2023-05-14T21:15:31.647Z,969
2023-05-14T21:20:33.096Z,969
2023-05-14T21:25:34.533Z,969
2023-05-14T21:30:35.942Z,969
2023-05-14T21:35:37.357Z,969
2023-05-14T21:40:39.758Z,968
2023-05-14T21:45:41.159Z,968
2023-05-14T21:50:42.530Z,968
2023-05-14T21:55:43.999Z,968
2023-05-14T22:00:45.566Z,968
2023-05-14T22:05:46.964Z,968
2023-05-14T22:10:48.385Z,968
2023-05-14T22:15:51.398Z,968
2023-05-14T22:20:56.912Z,968
2023-05-14T22:25:58.252Z,968
2023-05-14T22:30:59.840Z,968
2023-05-14T22:36:01.360Z,968
2023-05-14T22:41:02.771Z,968
2023-05-14T22:46:04.187Z,967
2023-05-14T22:51:05.627Z,967
2023-05-14T22:56:07.018Z,967
2023-05-14T23:01:08.633Z,967
2023-05-14T23:06:10.073Z,967
2023-05-14T23:11:11.491Z,967
2023-05-14T23:16:12.876Z,967
2023-05-14T23:21:14.335Z,967
2023-05-14T23:26:15.744Z,967
2023-05-14T23:31:17.266Z,967
2023-05-14T23:36:18.721Z,967
2023-05-14T23:41:20.158Z,967
2023-05-14T23:46:21.567Z,967
2023-05-14T23:51:23.091Z,967
2023-05-14T23:56:24.522Z,967
